createdAt,value
2019-03-12T05:03:51.947Z,95.739746
2019-03-12T05:07:27.092Z,95.593262
2019-03-12T05:10:54.972Z,95.635986
2019-03-12T05:14:22.898Z,96.008301
2019-03-12T05:17:51.753Z,96.112061
2019-03-12T05:21:19.638Z,96.325684
2019-03-12T05:24:47.538Z,96.264648
2019-03-12T05:28:15.443Z,96.679688
2019-03-12T05:31:43.317Z,96.783447
2019-03-12T05:35:11.291Z,96.99707
2019-03-12T05:38:39.125Z,96.887207
2019-03-12T05:42:07.008Z,96.783447
2019-03-12T05:45:34.900Z,96.783447
2019-03-12T05:49:03.794Z,96.679688
2019-03-12T05:52:31.692Z,96.783447
2019-03-12T05:55:59.585Z,96.783447
2019-03-12T05:59:27.482Z,96.783447
2019-03-12T06:02:55.396Z,96.679688
2019-03-12T06:06:23.277Z,96.575928
2019-03-12T06:09:51.176Z,96.472168
2019-03-12T06:13:19.077Z,96.325684
2019-03-12T06:16:46.976Z,96.325684
2019-03-12T06:20:14.856Z,96.21582
2019-03-12T06:23:42.771Z,96.112061
2019-03-12T06:27:10.689Z,96.112061
2019-03-12T06:30:41.543Z,95.861816
2019-03-12T06:34:09.448Z,95.800781
2019-03-12T06:37:37.353Z,95.758057
2019-03-12T06:41:05.283Z,95.550537
2019-03-12T06:44:33.179Z,95.336914
2019-03-12T06:48:01.069Z,95.233154
2019-03-12T06:51:29.209Z,95.336914
2019-03-12T06:54:57.045Z,95.233154
2019-03-12T06:58:24.945Z,95.294189
2019-03-12T07:01:52.869Z,95.294189
2019-03-12T07:05:20.769Z,95.294189
2019-03-12T07:08:48.669Z,95.501709
2019-03-12T07:12:16.573Z,95.458984
2019-03-12T07:15:45.303Z,95.355225
2019-03-12T07:19:13.211Z,95.355225
2019-03-12T07:22:41.140Z,95.20874
2019-03-12T07:26:09.086Z,95.10498
2019-03-12T07:29:37.985Z,94.750977
2019-03-12T07:33:05.891Z,94.750977
2019-03-12T07:36:33.921Z,94.750977
2019-03-12T07:40:01.691Z,94.598389
2019-03-12T07:43:29.592Z,94.18335
2019-03-12T07:46:57.509Z,93.725586
2019-03-12T07:50:25.392Z,93.157959
2019-03-12T07:53:59.120Z,92.388916
2019-03-12T07:57:25.270Z,91.662598
2019-03-12T08:00:54.072Z,91.351318
2019-03-12T08:04:21.979Z,91.101074
2019-03-12T08:07:49.957Z,91.412354
2019-03-12T08:11:17.877Z,91.308594
2019-03-12T08:14:45.818Z,91.516113
2019-03-12T08:18:13.712Z,91.412354
2019-03-12T08:21:41.597Z,90.893555
2019-03-12T08:25:11.498Z,90.893555
2019-03-12T08:28:39.399Z,90.893555
2019-03-12T08:32:07.298Z,90.826416
2019-03-12T08:35:35.225Z,91.204834
2019-03-12T08:39:03.177Z,90.228271
2019-03-12T08:42:31.080Z,90.124512
2019-03-12T08:45:59.021Z,90.020752
2019-03-12T08:49:26.902Z,90.081787
2019-03-12T08:52:56.782Z,88.94043
2019-03-12T08:56:24.670Z,89.251709
2019-03-12T08:59:53.566Z,90.081787
2019-03-12T09:03:21.460Z,89.666748
2019-03-12T09:06:49.372Z,90.081787
2019-03-12T09:10:17.269Z,89.624023
2019-03-12T09:13:45.259Z,90.350342
2019-03-12T09:17:14.156Z,89.727783
2019-03-12T09:20:42.040Z,90.203857
2019-03-12T09:24:10.041Z,89.648438
2019-03-12T09:27:37.843Z,89.544678
2019-03-12T09:31:05.726Z,89.294434
2019-03-12T09:34:33.642Z,89.398193
2019-03-12T09:38:01.553Z,89.605713
2019-03-12T09:41:29.424Z,88.83667
2019-03-12T09:44:57.321Z,89.398193
2019-03-12T09:48:25.225Z,89.770508
2019-03-12T09:51:53.106Z,88.586426
2019-03-12T09:55:21.049Z,88.031006
2019-03-12T09:58:48.950Z,87.060547
2019-03-12T10:02:16.862Z,87.573242
2019-03-12T10:05:44.741Z,86.706543
2019-03-12T10:09:13.633Z,86.669922
2019-03-12T10:12:41.532Z,85.736084
2019-03-12T10:16:10.403Z,85.699463
2019-03-12T10:19:38.308Z,83.837891
2019-03-12T10:23:06.214Z,85.076904
2019-03-12T10:26:34.089Z,86.254883
2019-03-12T10:30:01.995Z,85.284424
2019-03-12T10:33:29.896Z,84.973145
2019-03-12T10:37:10.767Z,86.010742
2019-03-12T10:40:31.618Z,85.076904
2019-03-12T10:44:00.510Z,85.180664
2019-03-12T10:47:28.388Z,85.388184
2019-03-12T10:50:56.313Z,84.765625
2019-03-12T10:54:24.210Z,84.729004
2019-03-12T10:57:53.083Z,83.203125
2019-03-12T11:01:20.985Z,81.860352
2019-03-12T11:04:48.877Z,82.342529
2019-03-12T11:08:23.816Z,80.926514
2019-03-12T11:11:51.712Z,75.183105
2019-03-12T11:15:19.609Z,75.836182
2019-03-12T11:18:47.535Z,72.576904
2019-03-12T11:22:15.407Z,69.024658
2019-03-12T11:25:44.307Z,68.615723
2019-03-12T11:29:12.204Z,66.705322
2019-03-12T11:32:40.092Z,65.478516
2019-03-12T11:36:08.270Z,67.41333
2019-03-12T11:39:35.893Z,70.080566
2019-03-12T11:43:03.876Z,67.108154
2019-03-12T11:46:41.314Z,67.590332
2019-03-12T11:50:06.565Z,67.181396
2019-03-12T11:53:34.378Z,66.912842
2019-03-12T11:57:02.387Z,64.215088
2019-03-12T12:00:30.517Z,64.056396
2019-03-12T12:03:58.096Z,63.018799
2019-03-12T12:07:26.017Z,61.004639
2019-03-12T12:10:54.874Z,60.522461
2019-03-12T12:14:23.775Z,63.165283
2019-03-12T12:17:51.686Z,62.756348
2019-03-12T12:21:19.594Z,62.927246
2019-03-12T12:24:47.510Z,62.548828
2019-03-12T12:28:15.431Z,64.349365
2019-03-12T12:31:43.332Z,64.276123
2019-03-12T12:35:13.214Z,66.021729
2019-03-12T12:38:41.118Z,65.228271
2019-03-12T12:42:09.043Z,66.796875
2019-03-12T12:45:37.051Z,66.833496
2019-03-12T12:49:05.032Z,66.931152
2019-03-12T12:52:33.005Z,67.211914
2019-03-12T12:56:00.883Z,67.41333
2019-03-12T12:59:29.776Z,66.900635
2019-03-12T13:02:58.669Z,66.28418
2019-03-12T13:06:26.592Z,66.387939
2019-03-12T13:09:54.476Z,66.082764
2019-03-12T13:13:22.380Z,66.699219
2019-03-12T13:16:50.274Z,66.595459
2019-03-12T13:20:19.200Z,66.833496
2019-03-12T13:23:48.057Z,67.242432
2019-03-12T13:27:15.965Z,66.113281
2019-03-12T13:30:43.875Z,66.143799
2019-03-12T13:34:11.783Z,67.272949
2019-03-12T13:37:40.701Z,67.199707
2019-03-12T13:41:08.645Z,71.038818
2019-03-12T13:44:36.582Z,72.509766
2019-03-12T13:48:04.513Z,73.126221
2019-03-12T13:51:32.438Z,75.286865
2019-03-12T13:55:01.627Z,74.77417
2019-03-12T13:58:29.309Z,75.494385
2019-03-12T14:01:57.182Z,75.695801
2019-03-12T14:05:25.080Z,74.359131
2019-03-12T14:08:52.995Z,74.67041
2019-03-12T14:12:20.874Z,75.799561
2019-03-12T14:15:48.777Z,74.67041
2019-03-12T14:19:18.655Z,73.742676
2019-03-12T14:22:46.546Z,74.462891
2019-03-12T14:26:15.431Z,73.638916
2019-03-12T14:29:43.333Z,72.509766
2019-03-12T14:33:11.239Z,72.613525
2019-03-12T14:36:39.153Z,73.022461
2019-03-12T14:40:07.086Z,73.22998
2019-03-12T14:43:35.115Z,72.814941
2019-03-12T14:47:06.016Z,73.638916
2019-03-12T14:50:33.017Z,72.442627
2019-03-12T14:54:01.013Z,74.700928
2019-03-12T14:57:29.945Z,76.556396
2019-03-12T15:00:57.866Z,78.033447
2019-03-12T15:04:25.753Z,79.406738
2019-03-12T15:07:53.781Z,79.718018
2019-03-12T15:11:21.664Z,80.749512
2019-03-12T15:14:49.616Z,80.126953
2019-03-12T15:18:17.669Z,82.293701
2019-03-12T15:21:45.580Z,81.506348
2019-03-12T15:25:13.458Z,80.987549
2019-03-12T15:28:41.374Z,83.666992
2019-03-12T15:32:09.272Z,84.118652
2019-03-12T15:35:37.158Z,84.533691
2019-03-12T15:39:05.057Z,84.014893
2019-03-12T15:42:33.774Z,84.838867
2019-03-12T15:46:02.673Z,86.49292
2019-03-12T15:49:31.564Z,86.94458
2019-03-12T15:53:02.457Z,86.016846
2019-03-12T15:56:30.356Z,86.94458
2019-03-12T15:59:58.248Z,86.224365
2019-03-12T16:03:27.148Z,87.255859
2019-03-12T16:07:01.028Z,85.394287
2019-03-12T16:10:26.900Z,86.120605
2019-03-12T16:13:55.805Z,86.053467
2019-03-12T16:17:23.707Z,86.883545
2019-03-12T16:20:52.595Z,86.260986
2019-03-12T16:24:20.546Z,86.572266
2019-03-12T16:27:48.446Z,87.744141
2019-03-12T16:31:16.350Z,88.05542
2019-03-12T16:34:44.232Z,88.574219
2019-03-12T16:38:12.144Z,89.752197
2019-03-12T16:41:40.042Z,90.679932
2019-03-12T16:45:07.922Z,90.783691
2019-03-12T16:48:38.351Z,89.685059
2019-03-12T16:52:04.702Z,90.930176
2019-03-12T16:55:32.584Z,90.411377
2019-03-12T16:59:00.480Z,89.892578
2019-03-12T17:02:30.366Z,89.935303
2019-03-12T17:05:58.319Z,90.350342
2019-03-12T17:09:33.569Z,90.454102
2019-03-12T17:13:01.475Z,90.142822
2019-03-12T17:16:29.362Z,90.246582
2019-03-12T17:19:58.222Z,89.935303
2019-03-12T17:23:26.119Z,89.831543
2019-03-12T17:26:54.082Z,89.624023
2019-03-12T17:30:21.994Z,88.28125
2019-03-12T17:33:50.489Z,88.549805
2019-03-12T17:37:18.383Z,87.82959
2019-03-12T17:40:46.282Z,87.82959
2019-03-12T17:44:14.164Z,85.968018
2019-03-12T17:47:42.045Z,85.656738
2019-03-12T17:51:09.968Z,85.345459
2019-03-12T17:54:37.952Z,84.558105
2019-03-12T17:58:05.845Z,85.803223
2019-03-12T18:01:34.732Z,84.661865
2019-03-12T18:05:02.627Z,84.729004
2019-03-12T18:08:30.512Z,85.552979
2019-03-12T18:11:58.428Z,83.69751
2019-03-12T18:15:26.325Z,83.282471
2019-03-12T18:18:54.198Z,83.178711
2019-03-12T18:22:26.549Z,82.147217
2019-03-12T18:25:54.516Z,81.939697
2019-03-12T18:29:23.328Z,81.317139
2019-03-12T18:32:51.225Z,80.9021
2019-03-12T18:36:22.213Z,81.835938
2019-03-12T18:39:50.191Z,81.799316
2019-03-12T18:43:18.071Z,80.969238
2019-03-12T18:46:46.035Z,81.384277
2019-03-12T18:50:13.981Z,80.657959
2019-03-12T18:53:41.879Z,80.865479
2019-03-12T18:57:09.848Z,81.176758
2019-03-12T19:00:37.799Z,81.176758
2019-03-12T19:04:05.694Z,80.657959
2019-03-12T19:07:37.014Z,80.865479
2019-03-12T19:11:05.008Z,80.761719
2019-03-12T19:14:32.900Z,79.077148
2019-03-12T19:18:00.815Z,78.869629
2019-03-12T19:21:28.795Z,78.662109
2019-03-12T19:24:56.685Z,78.973389
2019-03-12T19:28:24.587Z,77.941895
2019-03-12T19:31:52.496Z,79.180908
2019-03-12T19:35:20.391Z,79.180908
2019-03-12T19:38:48.297Z,79.589844
2019-03-12T19:42:16.199Z,79.937744
2019-03-12T19:45:45.177Z,79.730225
2019-03-12T19:49:13.076Z,78.90625
2019-03-12T19:52:40.973Z,79.321289
2019-03-12T19:56:09.855Z,78.69873
2019-03-12T19:59:37.836Z,79.833984
2019-03-12T20:03:11.935Z,79.01001
2019-03-12T20:06:38.744Z,79.217529
2019-03-12T20:10:06.600Z,78.69873
2019-03-12T20:13:34.511Z,78.283691
2019-03-12T20:17:08.822Z,77.874756
2019-03-12T20:20:34.277Z,77.667236
2019-03-12T20:24:02.193Z,76.733398
2019-03-12T20:27:34.551Z,77.563477
2019-03-12T20:31:03.463Z,76.940918
2019-03-12T20:34:31.917Z,75.567627
2019-03-12T20:38:00.880Z,77.111816
2019-03-12T20:41:28.769Z,75.567627
2019-03-12T20:44:56.682Z,75.256348
2019-03-12T20:48:24.619Z,74.737549
2019-03-12T20:51:52.533Z,75.769043
2019-03-12T20:55:20.474Z,73.498535
2019-03-12T20:58:48.484Z,74.432373
2019-03-12T21:02:16.462Z,73.809814
2019-03-12T21:05:45.348Z,72.259521
2019-03-12T21:09:13.372Z,73.291016
2019-03-12T21:12:42.268Z,72.88208
2019-03-12T21:16:10.175Z,71.710205
2019-03-12T21:19:39.072Z,72.229004
2019-03-12T21:23:07.142Z,74.084473
2019-03-12T21:26:36.025Z,74.017334
2019-03-12T21:30:04.051Z,75.671387
2019-03-12T21:33:33.710Z,76.495361
2019-03-12T21:37:01.612Z,75.048828
2019-03-12T21:40:29.630Z,75.463867
2019-03-12T21:43:57.553Z,75.463867
2019-03-12T21:47:25.579Z,75.598145
2019-03-12T21:50:54.192Z,75.701904
2019-03-12T21:54:22.125Z,74.151611
2019-03-12T21:57:50.019Z,75.292969
2019-03-12T22:01:18.600Z,74.77417
2019-03-12T22:04:46.686Z,72.808838
2019-03-12T22:08:14.408Z,73.809814
2019-03-12T22:11:43.272Z,73.706055
2019-03-12T22:15:11.168Z,73.291016
2019-03-12T22:18:39.070Z,74.67041
2019-03-12T22:22:06.954Z,74.359131
2019-03-12T22:25:35.850Z,75.189209
2019-03-12T22:29:03.753Z,74.359131
2019-03-12T22:32:31.627Z,74.359131
2019-03-12T22:35:59.523Z,74.047852
2019-03-12T22:39:27.416Z,74.255371
2019-03-12T22:42:56.309Z,74.87793
2019-03-12T22:46:24.203Z,73.638916
2019-03-12T22:49:52.093Z,72.503662
2019-03-12T22:53:19.988Z,72.399902
2019-03-12T22:56:48.858Z,72.088623
